createdAt,value
2018-08-24T00:02:50.181Z,9.33
2018-08-24T00:07:53.716Z,10.03
2018-08-24T00:12:57.258Z,8.40
2018-08-24T00:18:00.801Z,9.67
2018-08-24T00:23:04.374Z,11.63
2018-08-24T00:28:07.922Z,7.77
2018-08-24T00:33:11.631Z,8.00
2018-08-24T00:38:15.247Z,8.50
2018-08-24T00:43:18.875Z,8.27
2018-08-24T00:48:22.454Z,5.77
2018-08-24T00:53:31.856Z,7.20
2018-08-24T00:58:35.994Z,5.40
2018-08-24T01:03:40.574Z,6.40
2018-08-24T01:08:45.151Z,6.93
2018-08-24T01:13:51.481Z,6.60
2018-08-24T01:18:55.027Z,6.17
2018-08-24T01:23:58.622Z,5.30
2018-08-24T01:29:02.212Z,4.27
2018-08-24T01:34:06.025Z,4.37
2018-08-24T01:39:09.570Z,4.50
2018-08-24T01:44:13.205Z,4.97
2018-08-24T01:49:16.842Z,6.07
2018-08-24T01:54:20.395Z,5.97
2018-08-24T01:59:23.926Z,5.63
2018-08-24T02:04:27.528Z,5.77
2018-08-24T02:09:39.202Z,4.80
2018-08-24T02:14:42.739Z,4.00
2018-08-24T02:19:51.619Z,5.53
2018-08-24T02:24:55.208Z,5.00
2018-08-24T02:29:58.749Z,5.60
2018-08-24T02:35:02.330Z,4.50
2018-08-24T02:40:06.043Z,6.17
2018-08-24T02:45:09.777Z,7.80
2018-08-24T02:50:13.272Z,10.10
2018-08-24T02:55:16.953Z,10.77
2018-08-24T03:00:20.614Z,4.13
2018-08-24T03:05:24.339Z,5.07
2018-08-24T03:10:27.786Z,3.70
2018-08-24T03:15:31.333Z,5.57
2018-08-24T03:20:34.985Z,4.00
2018-08-24T03:25:38.525Z,2.80
2018-08-24T03:30:42.070Z,2.47
2018-08-24T03:35:45.670Z,2.40
2018-08-24T03:40:49.226Z,2.40
2018-08-24T03:45:52.795Z,2.80
2018-08-24T03:50:56.319Z,2.03
2018-08-24T03:56:00.070Z,1.80
2018-08-24T04:01:04.951Z,1.93
2018-08-24T04:06:08.490Z,3.00
2018-08-24T04:11:12.070Z,1.83
2018-08-24T04:16:15.582Z,1.80
2018-08-24T04:21:21.154Z,2.63
2018-08-24T04:26:24.690Z,2.57
2018-08-24T04:31:29.342Z,1.87
2018-08-24T04:36:37.848Z,1.53
2018-08-24T04:41:42.258Z,3.43
2018-08-24T04:46:45.771Z,1.17
2018-08-24T04:51:49.382Z,1.33
2018-08-24T04:56:57.191Z,1.60
2018-08-24T05:02:00.931Z,2.00
2018-08-24T05:07:04.493Z,1.63
2018-08-24T05:12:08.169Z,1.57
2018-08-24T05:17:11.709Z,2.23
2018-08-24T05:22:15.225Z,2.00
2018-08-24T05:27:19.966Z,1.70
2018-08-24T05:32:23.589Z,2.10
2018-08-24T05:37:27.471Z,1.43
2018-08-24T05:42:31.014Z,2.07
2018-08-24T05:47:34.581Z,1.63
2018-08-24T05:52:38.136Z,3.00
2018-08-24T05:57:41.663Z,1.60
2018-08-24T06:02:45.898Z,1.83
2018-08-24T06:07:49.491Z,1.90
2018-08-24T06:12:53.030Z,2.93
2018-08-24T06:17:57.393Z,3.97
2018-08-24T06:23:00.918Z,1.73
2018-08-24T06:28:04.546Z,2.30
2018-08-24T06:33:08.093Z,3.40
2018-08-24T06:38:12.726Z,2.83
2018-08-24T06:43:16.287Z,5.17
2018-08-24T06:48:19.896Z,3.63
2018-08-24T06:53:23.683Z,2.17
2018-08-24T06:58:27.090Z,4.60
2018-08-24T07:03:30.710Z,2.23
2018-08-24T07:08:34.409Z,7.07
2018-08-24T07:13:38.310Z,2.67
2018-08-24T07:18:41.929Z,5.33
2018-08-24T07:23:45.618Z,3.40
2018-08-24T07:28:49.293Z,2.20
2018-08-24T07:33:57.940Z,4.50
2018-08-24T07:39:01.612Z,4.47
2018-08-24T07:44:09.099Z,3.33
2018-08-24T07:49:12.754Z,4.33
2018-08-24T07:54:16.414Z,3.77
2018-08-24T07:59:20.026Z,7.40
2018-08-24T08:04:23.553Z,6.13
2018-08-24T08:09:27.214Z,4.30
2018-08-24T08:14:31.747Z,5.80
2018-08-24T08:19:35.393Z,4.30
2018-08-24T08:24:38.947Z,4.60
2018-08-24T08:29:47.804Z,4.33
2018-08-24T08:34:51.393Z,5.67
2018-08-24T08:40:03.059Z,8.57
2018-08-24T08:45:06.793Z,4.10
2018-08-24T08:50:10.374Z,4.57
2018-08-24T08:55:14.003Z,4.17
2018-08-24T09:00:18.754Z,7.87
2018-08-24T09:05:22.327Z,6.30
2018-08-24T09:10:25.864Z,4.73
2018-08-24T09:15:29.490Z,4.53
2018-08-24T09:20:38.310Z,5.50
2018-08-24T09:25:47.276Z,7.17
2018-08-24T09:31:03.071Z,3.57
2018-08-24T09:36:12.698Z,5.63
2018-08-24T09:41:16.400Z,5.93
2018-08-24T09:46:22.068Z,7.27
2018-08-24T09:51:26.816Z,5.83
2018-08-24T09:56:31.410Z,8.73
2018-08-24T10:01:40.378Z,5.77
2018-08-24T10:06:50.420Z,7.17
2018-08-24T10:11:54.059Z,4.90
2018-08-24T10:16:59.749Z,9.20
2018-08-24T10:22:03.454Z,5.63
2018-08-24T10:27:07.064Z,4.93
2018-08-24T10:32:10.681Z,7.07
2018-08-24T10:37:20.861Z,8.13
2018-08-24T10:42:24.578Z,6.10
2018-08-24T10:47:28.250Z,4.70
2018-08-24T10:52:34.973Z,5.57
2018-08-24T10:57:38.607Z,5.37
2018-08-24T11:02:45.901Z,5.47
2018-08-24T11:07:52.747Z,7.00
2018-08-24T11:12:56.461Z,7.70
2018-08-24T11:18:10.352Z,6.60
2018-08-24T11:23:15.040Z,7.10
2018-08-24T11:28:18.612Z,5.33
2018-08-24T11:33:22.296Z,7.37
2018-08-24T11:38:25.844Z,6.43
2018-08-24T11:43:29.507Z,7.17
2018-08-24T11:48:33.079Z,5.17
2018-08-24T11:53:42.530Z,10.97
2018-08-24T11:58:46.078Z,8.07
2018-08-24T12:03:49.737Z,6.80
2018-08-24T12:08:53.280Z,5.57
2018-08-24T12:13:56.915Z,6.37
2018-08-24T12:19:00.578Z,4.67
2018-08-24T12:24:09.436Z,4.17
2018-08-24T12:29:13.110Z,5.60
2018-08-24T12:34:22.431Z,5.97
2018-08-24T12:39:25.961Z,5.07
2018-08-24T12:44:32.985Z,5.37
2018-08-24T12:49:36.629Z,5.13
2018-08-24T12:54:40.330Z,6.30
2018-08-24T12:59:43.859Z,6.03
2018-08-24T13:04:57.978Z,23.03
2018-08-24T13:10:02.928Z,15.63
2018-08-24T13:15:06.590Z,11.90
2018-08-24T13:20:10.282Z,6.33
2018-08-24T13:25:13.979Z,9.17
2018-08-24T13:30:17.543Z,6.10
2018-08-24T13:35:21.233Z,6.13
2018-08-24T13:40:30.462Z,5.63
2018-08-24T13:45:34.231Z,4.33
2018-08-24T13:50:38.694Z,4.37
2018-08-24T13:55:42.386Z,4.70
2018-08-24T14:00:49.306Z,4.63
2018-08-24T14:05:53.063Z,4.50
2018-08-24T14:10:58.409Z,3.77
2018-08-24T14:16:01.998Z,5.90
2018-08-24T14:21:07.767Z,9.47
2018-08-24T14:26:11.630Z,6.63
2018-08-24T14:31:17.352Z,6.53
2018-08-24T14:36:21.029Z,6.93
2018-08-24T14:41:25.258Z,7.27
2018-08-24T14:46:29.002Z,5.87
2018-08-24T14:51:34.875Z,5.80
2018-08-24T14:56:40.535Z,4.70
2018-08-24T15:01:44.195Z,4.30
2018-08-24T15:06:48.827Z,4.33
2018-08-24T15:11:59.649Z,6.60
2018-08-24T15:17:03.623Z,3.60
2018-08-24T15:22:09.286Z,5.33
2018-08-24T15:27:13.106Z,6.63
2018-08-24T15:32:20.628Z,6.03
2018-08-24T15:37:26.477Z,5.20
2018-08-24T15:42:30.048Z,4.70
2018-08-24T15:47:39.902Z,4.77
2018-08-24T15:52:49.143Z,4.17
2018-08-24T15:57:56.478Z,3.10
2018-08-24T16:03:00.100Z,4.30
2018-08-24T16:08:07.322Z,5.57
2018-08-24T16:13:10.979Z,4.07
2018-08-24T16:18:19.716Z,3.80
2018-08-24T16:23:26.976Z,3.07
2018-08-24T16:28:30.507Z,4.33
2018-08-24T16:33:34.123Z,3.00
2018-08-24T16:38:39.273Z,3.07
2018-08-24T16:43:42.851Z,6.13
2018-08-24T16:48:47.691Z,3.50
2018-08-24T16:53:51.394Z,4.60
2018-08-24T16:58:57.993Z,5.40
2018-08-24T17:04:02.001Z,4.03
2018-08-24T17:09:10.682Z,4.27
2018-08-24T17:14:14.472Z,3.20
2018-08-24T17:19:18.101Z,6.30
2018-08-24T17:24:21.758Z,4.47
2018-08-24T17:29:26.547Z,3.43
2018-08-24T17:34:31.218Z,4.80
2018-08-24T17:39:35.161Z,3.80
2018-08-24T17:44:38.771Z,6.63
2018-08-24T17:49:42.606Z,4.97
2018-08-24T17:54:46.263Z,4.83
2018-08-24T17:59:49.938Z,3.10
2018-08-24T18:04:53.889Z,3.37
2018-08-24T18:09:58.723Z,4.33
2018-08-24T18:15:02.526Z,4.67
2018-08-24T18:20:06.027Z,4.13
2018-08-24T18:25:10.007Z,3.07
2018-08-24T18:30:14.733Z,3.20
2018-08-24T18:35:18.216Z,3.23
2018-08-24T18:40:21.826Z,5.37
2018-08-24T18:45:28.873Z,3.90
2018-08-24T18:50:32.555Z,3.80
2018-08-24T18:55:36.137Z,2.80
2018-08-24T19:00:39.728Z,1.93
2018-08-24T19:05:43.448Z,2.80
2018-08-24T19:10:52.163Z,4.43
2018-08-24T19:15:59.633Z,2.83
2018-08-24T19:21:08.598Z,2.63
2018-08-24T19:26:13.370Z,4.40
2018-08-24T19:31:18.031Z,3.50
2018-08-24T19:36:21.779Z,2.80
2018-08-24T19:41:32.710Z,5.10
2018-08-24T19:46:38.403Z,3.73
2018-08-24T19:51:44.231Z,5.73
2018-08-24T19:56:47.992Z,3.00
2018-08-24T20:01:56.690Z,4.03
2018-08-24T20:07:05.599Z,3.63
2018-08-24T20:12:12.578Z,5.53
2018-08-24T20:17:21.497Z,6.33
2018-08-24T20:22:25.254Z,5.80
2018-08-24T20:27:28.870Z,3.87
2018-08-24T20:32:32.534Z,4.60
2018-08-24T20:37:36.313Z,3.57
2018-08-24T20:42:39.919Z,8.43
2018-08-24T20:47:43.478Z,3.37
2018-08-24T20:52:47.225Z,5.23
2018-08-24T20:57:50.747Z,3.17
2018-08-24T21:02:54.330Z,3.77
2018-08-24T21:07:57.900Z,2.97
2018-08-24T21:13:01.455Z,2.43
2018-08-24T21:18:05.143Z,1.77
2018-08-24T21:23:08.824Z,2.80
2018-08-24T21:28:12.352Z,4.47
2018-08-24T21:33:17.021Z,6.13
2018-08-24T21:38:20.595Z,2.87
2018-08-24T21:43:24.163Z,3.37
2018-08-24T21:48:27.806Z,5.27
2018-08-24T21:53:31.386Z,3.17
2018-08-24T21:58:34.955Z,6.20
2018-08-24T22:03:38.496Z,5.73
2018-08-24T22:08:42.052Z,6.37
2018-08-24T22:13:45.699Z,3.97
2018-08-24T22:18:49.451Z,5.03
2018-08-24T22:23:53.040Z,5.60
2018-08-24T22:28:56.605Z,5.70
2018-08-24T22:34:00.198Z,2.03
2018-08-24T22:39:05.118Z,5.20
2018-08-24T22:44:11.778Z,3.90
2018-08-24T22:49:15.326Z,3.70
2018-08-24T22:54:19.102Z,3.23
2018-08-24T22:59:27.950Z,4.93
2018-08-24T23:04:31.458Z,3.03
2018-08-24T23:09:36.177Z,2.57
2018-08-24T23:14:39.786Z,3.77
2018-08-24T23:19:43.387Z,2.80
2018-08-24T23:24:46.879Z,2.93
2018-08-24T23:29:50.490Z,4.83
2018-08-24T23:34:54.039Z,2.40
2018-08-24T23:39:57.555Z,3.80
2018-08-24T23:45:04.747Z,3.77
2018-08-24T23:50:08.478Z,4.27
2018-08-24T23:55:12.417Z,3.27
